sensor_id;sensor_type;location;lat;lon;timestamp;P1;durP1;ratioP1;P2;durP2;ratioP2
26536;SDS011;14204;51.262;5.488;2024-03-02T00:00:51;2.78;;;1.27;;
26536;SDS011;14204;51.262;5.488;2024-03-02T00:03:18;5.10;;;1.58;;
26536;SDS011;14204;51.262;5.488;2024-03-02T00:05:47;3.78;;;1.13;;
26536;SDS011;14204;51.262;5.488;2024-03-02T00:08:16;3.30;;;1.10;;
26536;SDS011;14204;51.262;5.488;2024-03-02T00:10:49;1.70;;;1.08;;
26536;SDS011;14204;51.262;5.488;2024-03-02T00:13:15;4.22;;;1.10;;
26536;SDS011;14204;51.262;5.488;2024-03-02T00:18:09;0.82;;;0.40;;
26536;SDS011;14204;51.262;5.488;2024-03-02T00:20:36;0.47;;;0.17;;
26536;SDS011;14204;51.262;5.488;2024-03-02T00:23:09;3.03;;;0.28;;
26536;SDS011;14204;51.262;5.488;2024-03-02T00:25:38;0.60;;;0.43;;
26536;SDS011;14204;51.262;5.488;2024-03-02T00:28:05;3.83;;;0.40;;
26536;SDS011;14204;51.262;5.488;2024-03-02T00:30:51;0.40;;;0.40;;
26536;SDS011;14204;51.262;5.488;2024-03-02T00:33:27;2.28;;;0.30;;
26536;SDS011;14204;51.262;5.488;2024-03-02T00:35:59;1.02;;;0.50;;
26536;SDS011;14204;51.262;5.488;2024-03-02T00:38:26;0.95;;;0.22;;
26536;SDS011;14204;51.262;5.488;2024-03-02T00:40:53;2.75;;;0.40;;
26536;SDS011;14204;51.262;5.488;2024-03-02T00:45:56;0.25;;;0.25;;
26536;SDS011;14204;51.262;5.488;2024-03-02T00:48:22;0.50;;;0.28;;
26536;SDS011;14204;51.262;5.488;2024-03-02T00:50:57;0.25;;;0.20;;
26536;SDS011;14204;51.262;5.488;2024-03-02T00:53:24;0.70;;;0.20;;
26536;SDS011;14204;51.262;5.488;2024-03-02T00:55:52;2.58;;;0.60;;
26536;SDS011;14204;51.262;5.488;2024-03-02T00:58:18;3.35;;;0.70;;
26536;SDS011;14204;51.262;5.488;2024-03-02T01:00:43;1.20;;;0.50;;
26536;SDS011;14204;51.262;5.488;2024-03-02T01:03:09;1.17;;;0.60;;
26536;SDS011;14204;51.262;5.488;2024-03-02T01:05:36;1.00;;;0.50;;
26536;SDS011;14204;51.262;5.488;2024-03-02T01:08:01;0.77;;;0.30;;
26536;SDS011;14204;51.262;5.488;2024-03-02T01:10:27;0.82;;;0.30;;
26536;SDS011;14204;51.262;5.488;2024-03-02T01:12:53;0.20;;;0.10;;
26536;SDS011;14204;51.262;5.488;2024-03-02T01:15:19;0.65;;;0.30;;
26536;SDS011;14204;51.262;5.488;2024-03-02T01:17:45;1.13;;;0.30;;
26536;SDS011;14204;51.262;5.488;2024-03-02T01:20:10;1.23;;;0.20;;
26536;SDS011;14204;51.262;5.488;2024-03-02T01:22:36;0.38;;;0.30;;
26536;SDS011;14204;51.262;5.488;2024-03-02T01:25:02;1.10;;;0.15;;
26536;SDS011;14204;51.262;5.488;2024-03-02T01:27:28;0.52;;;0.10;;
26536;SDS011;14204;51.262;5.488;2024-03-02T01:29:54;0.40;;;0.20;;
26536;SDS011;14204;51.262;5.488;2024-03-02T01:32:20;0.38;;;0.30;;
26536;SDS011;14204;51.262;5.488;2024-03-02T01:34:45;1.48;;;0.20;;
26536;SDS011;14204;51.262;5.488;2024-03-02T01:37:11;0.25;;;0.17;;
26536;SDS011;14204;51.262;5.488;2024-03-02T01:39:37;0.55;;;0.20;;
26536;SDS011;14204;51.262;5.488;2024-03-02T01:42:02;1.55;;;0.30;;
26536;SDS011;14204;51.262;5.488;2024-03-02T01:44:28;0.15;;;0.15;;
26536;SDS011;14204;51.262;5.488;2024-03-02T01:46:54;0.50;;;0.10;;
26536;SDS011;14204;51.262;5.488;2024-03-02T01:49:20;1.83;;;0.32;;
26536;SDS011;14204;51.262;5.488;2024-03-02T01:51:46;0.10;;;0.10;;
26536;SDS011;14204;51.262;5.488;2024-03-02T01:54:11;0.63;;;0.20;;
26536;SDS011;14204;51.262;5.488;2024-03-02T01:56:37;0.25;;;0.20;;
26536;SDS011;14204;51.262;5.488;2024-03-02T01:59:03;1.88;;;0.30;;
26536;SDS011;14204;51.262;5.488;2024-03-02T02:01:29;3.22;;;0.57;;
26536;SDS011;14204;51.262;5.488;2024-03-02T02:03:55;0.52;;;0.40;;
26536;SDS011;14204;51.262;5.488;2024-03-02T02:06:21;0.88;;;0.30;;
26536;SDS011;14204;51.262;5.488;2024-03-02T02:08:47;1.33;;;0.35;;
26536;SDS011;14204;51.262;5.488;2024-03-02T02:11:15;0.38;;;0.20;;
26536;SDS011;14204;51.262;5.488;2024-03-02T02:13:41;0.88;;;0.40;;
26536;SDS011;14204;51.262;5.488;2024-03-02T02:16:07;0.65;;;0.22;;
26536;SDS011;14204;51.262;5.488;2024-03-02T02:18:34;0.30;;;0.30;;
26536;SDS011;14204;51.262;5.488;2024-03-02T02:21:01;0.63;;;0.32;;
26536;SDS011;14204;51.262;5.488;2024-03-02T02:23:27;0.70;;;0.20;;
26536;SDS011;14204;51.262;5.488;2024-03-02T02:25:52;1.00;;;0.30;;
26536;SDS011;14204;51.262;5.488;2024-03-02T02:28:18;0.75;;;0.30;;
26536;SDS011;14204;51.262;5.488;2024-03-02T02:30:44;1.30;;;0.20;;
26536;SDS011;14204;51.262;5.488;2024-03-02T02:33:10;1.65;;;0.43;;
26536;SDS011;14204;51.262;5.488;2024-03-02T02:35:35;0.95;;;0.30;;
26536;SDS011;14204;51.262;5.488;2024-03-02T02:38:01;0.52;;;0.40;;
26536;SDS011;14204;51.262;5.488;2024-03-02T02:40:28;1.00;;;0.20;;
26536;SDS011;14204;51.262;5.488;2024-03-02T02:42:57;0.40;;;0.30;;
26536;SDS011;14204;51.262;5.488;2024-03-02T02:45:24;0.40;;;0.10;;
26536;SDS011;14204;51.262;5.488;2024-03-02T02:47:49;1.35;;;0.40;;
26536;SDS011;14204;51.262;5.488;2024-03-02T02:50:15;0.88;;;0.40;;
26536;SDS011;14204;51.262;5.488;2024-03-02T02:52:41;1.00;;;0.30;;
26536;SDS011;14204;51.262;5.488;2024-03-02T02:55:08;1.85;;;0.50;;
26536;SDS011;14204;51.262;5.488;2024-03-02T02:57:36;1.50;;;0.38;;
26536;SDS011;14204;51.262;5.488;2024-03-02T03:00:07;1.27;;;0.30;;
26536;SDS011;14204;51.262;5.488;2024-03-02T03:02:41;0.30;;;0.30;;
26536;SDS011;14204;51.262;5.488;2024-03-02T03:05:08;1.58;;;0.32;;
26536;SDS011;14204;51.262;5.488;2024-03-02T03:07:35;0.20;;;0.20;;
26536;SDS011;14204;51.262;5.488;2024-03-02T03:10:02;2.13;;;0.45;;
26536;SDS011;14204;51.262;5.488;2024-03-02T03:12:29;0.70;;;0.32;;
26536;SDS011;14204;51.262;5.488;2024-03-02T03:14:56;2.20;;;0.30;;
26536;SDS011;14204;51.262;5.488;2024-03-02T03:17:22;1.02;;;0.13;;
26536;SDS011;14204;51.262;5.488;2024-03-02T03:19:48;0.88;;;0.30;;
26536;SDS011;14204;51.262;5.488;2024-03-02T03:22:14;0.32;;;0.28;;
26536;SDS011;14204;51.262;5.488;2024-03-02T03:24:40;0.40;;;0.20;;
26536;SDS011;14204;51.262;5.488;2024-03-02T03:27:05;1.67;;;0.30;;
26536;SDS011;14204;51.262;5.488;2024-03-02T03:29:31;0.88;;;0.57;;
26536;SDS011;14204;51.262;5.488;2024-03-02T03:31:57;0.52;;;0.30;;
26536;SDS011;14204;51.262;5.488;2024-03-02T03:34:23;2.25;;;0.22;;
26536;SDS011;14204;51.262;5.488;2024-03-02T03:36:48;1.17;;;0.40;;
26536;SDS011;14204;51.262;5.488;2024-03-02T03:39:14;0.63;;;0.30;;
26536;SDS011;14204;51.262;5.488;2024-03-02T03:41:43;0.30;;;0.20;;
26536;SDS011;14204;51.262;5.488;2024-03-02T03:44:08;0.50;;;0.20;;
26536;SDS011;14204;51.262;5.488;2024-03-02T03:46:34;1.58;;;0.40;;
26536;SDS011;14204;51.262;5.488;2024-03-02T03:49:00;0.95;;;0.43;;
26536;SDS011;14204;51.262;5.488;2024-03-02T03:51:25;1.40;;;0.10;;
26536;SDS011;14204;51.262;5.488;2024-03-02T03:53:51;0.90;;;0.20;;
26536;SDS011;14204;51.262;5.488;2024-03-02T03:56:17;0.35;;;0.15;;
26536;SDS011;14204;51.262;5.488;2024-03-02T03:58:42;1.40;;;0.20;;
26536;SDS011;14204;51.262;5.488;2024-03-02T04:01:08;0.57;;;0.20;;
26536;SDS011;14204;51.262;5.488;2024-03-02T04:03:34;0.50;;;0.20;;
26536;SDS011;14204;51.262;5.488;2024-03-02T04:06:00;0.20;;;0.15;;
26536;SDS011;14204;51.262;5.488;2024-03-02T04:08:25;0.30;;;0.10;;
26536;SDS011;14204;51.262;5.488;2024-03-02T04:10:51;0.73;;;0.30;;
26536;SDS011;14204;51.262;5.488;2024-03-02T04:13:17;0.88;;;0.30;;
26536;SDS011;14204;51.262;5.488;2024-03-02T04:15:42;1.75;;;0.30;;
26536;SDS011;14204;51.262;5.488;2024-03-02T04:18:08;0.55;;;0.20;;
26536;SDS011;14204;51.262;5.488;2024-03-02T04:20:34;0.50;;;0.20;;
26536;SDS011;14204;51.262;5.488;2024-03-02T04:23:00;0.65;;;0.20;;
26536;SDS011;14204;51.262;5.488;2024-03-02T04:25:26;0.93;;;0.20;;
26536;SDS011;14204;51.262;5.488;2024-03-02T04:27:51;0.90;;;0.25;;
26536;SDS011;14204;51.262;5.488;2024-03-02T04:30:17;1.40;;;0.10;;
26536;SDS011;14204;51.262;5.488;2024-03-02T04:32:43;3.58;;;0.30;;
26536;SDS011;14204;51.262;5.488;2024-03-02T04:35:11;0.47;;;0.20;;
26536;SDS011;14204;51.262;5.488;2024-03-02T04:37:37;1.20;;;0.30;;
26536;SDS011;14204;51.262;5.488;2024-03-02T04:40:04;1.05;;;0.20;;
26536;SDS011;14204;51.262;5.488;2024-03-02T04:42:33;1.33;;;0.40;;
26536;SDS011;14204;51.262;5.488;2024-03-02T04:44:59;0.82;;;0.30;;
26536;SDS011;14204;51.262;5.488;2024-03-02T04:47:25;0.43;;;0.10;;
26536;SDS011;14204;51.262;5.488;2024-03-02T04:49:50;0.30;;;0.20;;
26536;SDS011;14204;51.262;5.488;2024-03-02T04:52:16;0.57;;;0.30;;
26536;SDS011;14204;51.262;5.488;2024-03-02T04:54:42;1.02;;;0.17;;
26536;SDS011;14204;51.262;5.488;2024-03-02T04:57:27;1.58;;;0.25;;
26536;SDS011;14204;51.262;5.488;2024-03-02T04:59:52;1.67;;;0.32;;
26536;SDS011;14204;51.262;5.488;2024-03-02T05:02:18;0.20;;;0.20;;
26536;SDS011;14204;51.262;5.488;2024-03-02T05:04:44;1.63;;;0.30;;
26536;SDS011;14204;51.262;5.488;2024-03-02T05:07:09;1.05;;;0.28;;
26536;SDS011;14204;51.262;5.488;2024-03-02T05:09:35;0.95;;;0.32;;
26536;SDS011;14204;51.262;5.488;2024-03-02T05:12:01;1.00;;;0.52;;
26536;SDS011;14204;51.262;5.488;2024-03-02T05:15:00;2.10;;;0.35;;
26536;SDS011;14204;51.262;5.488;2024-03-02T05:17:27;2.25;;;0.30;;
26536;SDS011;14204;51.262;5.488;2024-03-02T05:19:52;2.28;;;0.70;;
26536;SDS011;14204;51.262;5.488;2024-03-02T05:22:18;0.40;;;0.35;;
26536;SDS011;14204;51.262;5.488;2024-03-02T05:24:44;2.05;;;0.40;;
26536;SDS011;14204;51.262;5.488;2024-03-02T05:27:09;0.45;;;0.30;;
26536;SDS011;14204;51.262;5.488;2024-03-02T05:29:35;0.98;;;0.52;;
26536;SDS011;14204;51.262;5.488;2024-03-02T05:32:01;1.98;;;0.40;;
26536;SDS011;14204;51.262;5.488;2024-03-02T05:34:26;1.13;;;0.40;;
26536;SDS011;14204;51.262;5.488;2024-03-02T05:36:52;0.75;;;0.40;;
26536;SDS011;14204;51.262;5.488;2024-03-02T05:39:18;2.75;;;0.40;;
26536;SDS011;14204;51.262;5.488;2024-03-02T05:41:44;0.85;;;0.30;;
26536;SDS011;14204;51.262;5.488;2024-03-02T05:44:09;2.03;;;0.45;;
26536;SDS011;14204;51.262;5.488;2024-03-02T05:46:35;3.20;;;0.40;;
26536;SDS011;14204;51.262;5.488;2024-03-02T05:49:01;1.17;;;0.38;;
26536;SDS011;14204;51.262;5.488;2024-03-02T05:51:26;3.15;;;0.50;;
26536;SDS011;14204;51.262;5.488;2024-03-02T05:53:52;0.90;;;0.32;;
26536;SDS011;14204;51.262;5.488;2024-03-02T05:56:18;1.23;;;0.32;;
26536;SDS011;14204;51.262;5.488;2024-03-02T05:58:43;1.75;;;0.50;;
26536;SDS011;14204;51.262;5.488;2024-03-02T06:01:27;0.60;;;0.30;;
26536;SDS011;14204;51.262;5.488;2024-03-02T06:03:55;1.45;;;0.40;;
26536;SDS011;14204;51.262;5.488;2024-03-02T06:06:21;1.08;;;0.38;;
26536;SDS011;14204;51.262;5.488;2024-03-02T06:08:48;0.82;;;0.43;;
26536;SDS011;14204;51.262;5.488;2024-03-02T06:11:13;2.95;;;0.40;;
26536;SDS011;14204;51.262;5.488;2024-03-02T06:13:39;1.17;;;0.40;;
26536;SDS011;14204;51.262;5.488;2024-03-02T06:16:05;1.55;;;0.30;;
26536;SDS011;14204;51.262;5.488;2024-03-02T06:18:30;2.97;;;0.55;;
26536;SDS011;14204;51.262;5.488;2024-03-02T06:20:56;1.50;;;0.55;;
26536;SDS011;14204;51.262;5.488;2024-03-02T06:23:22;1.58;;;0.50;;
26536;SDS011;14204;51.262;5.488;2024-03-02T06:25:47;0.80;;;0.30;;
26536;SDS011;14204;51.262;5.488;2024-03-02T06:28:13;2.78;;;0.50;;
26536;SDS011;14204;51.262;5.488;2024-03-02T06:30:41;3.88;;;0.50;;
26536;SDS011;14204;51.262;5.488;2024-03-02T06:33:07;1.05;;;0.50;;
26536;SDS011;14204;51.262;5.488;2024-03-02T06:35:33;2.63;;;0.63;;
26536;SDS011;14204;51.262;5.488;2024-03-02T06:38:00;1.15;;;0.40;;
26536;SDS011;14204;51.262;5.488;2024-03-02T06:40:26;2.40;;;0.50;;
26536;SDS011;14204;51.262;5.488;2024-03-02T06:42:52;2.33;;;0.47;;
26536;SDS011;14204;51.262;5.488;2024-03-02T06:45:17;2.08;;;0.60;;
26536;SDS011;14204;51.262;5.488;2024-03-02T06:47:43;1.75;;;0.40;;
26536;SDS011;14204;51.262;5.488;2024-03-02T06:50:09;1.13;;;0.63;;
26536;SDS011;14204;51.262;5.488;2024-03-02T06:52:35;5.75;;;0.80;;
26536;SDS011;14204;51.262;5.488;2024-03-02T06:55:01;1.77;;;0.98;;
26536;SDS011;14204;51.262;5.488;2024-03-02T06:57:27;2.28;;;0.65;;
26536;SDS011;14204;51.262;5.488;2024-03-02T06:59:53;1.05;;;0.50;;
26536;SDS011;14204;51.262;5.488;2024-03-02T07:02:23;1.85;;;0.57;;
26536;SDS011;14204;51.262;5.488;2024-03-02T07:04:50;3.20;;;0.40;;
26536;SDS011;14204;51.262;5.488;2024-03-02T07:07:16;1.75;;;0.77;;
26536;SDS011;14204;51.262;5.488;2024-03-02T07:09:42;3.10;;;0.50;;
26536;SDS011;14204;51.262;5.488;2024-03-02T07:12:08;5.07;;;1.15;;
26536;SDS011;14204;51.262;5.488;2024-03-02T07:14:33;4.32;;;1.25;;
26536;SDS011;14204;51.262;5.488;2024-03-02T07:17:18;3.33;;;0.63;;
26536;SDS011;14204;51.262;5.488;2024-03-02T07:19:44;2.28;;;0.70;;
26536;SDS011;14204;51.262;5.488;2024-03-02T07:22:09;3.33;;;0.52;;
26536;SDS011;14204;51.262;5.488;2024-03-02T07:24:42;1.65;;;0.55;;
26536;SDS011;14204;51.262;5.488;2024-03-02T07:27:11;3.47;;;0.70;;
26536;SDS011;14204;51.262;5.488;2024-03-02T07:29:38;3.53;;;0.80;;
26536;SDS011;14204;51.262;5.488;2024-03-02T07:32:04;2.03;;;0.47;;
26536;SDS011;14204;51.262;5.488;2024-03-02T07:34:30;5.00;;;1.00;;
26536;SDS011;14204;51.262;5.488;2024-03-02T07:36:56;2.70;;;0.75;;
26536;SDS011;14204;51.262;5.488;2024-03-02T07:39:22;4.38;;;0.82;;
26536;SDS011;14204;51.262;5.488;2024-03-02T07:41:48;2.33;;;0.60;;
26536;SDS011;14204;51.262;5.488;2024-03-02T07:44:14;4.15;;;0.80;;
26536;SDS011;14204;51.262;5.488;2024-03-02T07:46:41;3.60;;;0.98;;
26536;SDS011;14204;51.262;5.488;2024-03-02T07:49:07;3.75;;;0.77;;
26536;SDS011;14204;51.262;5.488;2024-03-02T07:51:34;5.78;;;0.98;;
26536;SDS011;14204;51.262;5.488;2024-03-02T07:54:00;3.10;;;1.00;;
26536;SDS011;14204;51.262;5.488;2024-03-02T07:56:26;5.88;;;0.75;;
26536;SDS011;14204;51.262;5.488;2024-03-02T07:58:51;4.10;;;1.08;;
26536;SDS011;14204;51.262;5.488;2024-03-02T08:01:18;2.88;;;0.80;;
26536;SDS011;14204;51.262;5.488;2024-03-02T08:03:43;4.43;;;1.10;;
26536;SDS011;14204;51.262;5.488;2024-03-02T08:06:18;1.08;;;0.50;;
26536;SDS011;14204;51.262;5.488;2024-03-02T08:08:46;3.88;;;0.80;;
26536;SDS011;14204;51.262;5.488;2024-03-02T08:11:12;3.45;;;0.88;;
26536;SDS011;14204;51.262;5.488;2024-03-02T08:13:38;3.65;;;0.88;;
26536;SDS011;14204;51.262;5.488;2024-03-02T08:16:04;2.72;;;0.55;;
26536;SDS011;14204;51.262;5.488;2024-03-02T08:18:32;4.50;;;0.85;;
26536;SDS011;14204;51.262;5.488;2024-03-02T08:20:59;5.82;;;0.85;;
26536;SDS011;14204;51.262;5.488;2024-03-02T08:23:25;2.38;;;0.68;;
26536;SDS011;14204;51.262;5.488;2024-03-02T08:25:50;4.05;;;0.70;;
26536;SDS011;14204;51.262;5.488;2024-03-02T08:28:16;5.78;;;0.52;;
26536;SDS011;14204;51.262;5.488;2024-03-02T08:30:42;3.00;;;0.50;;
26536;SDS011;14204;51.262;5.488;2024-03-02T08:33:08;2.83;;;1.40;;
26536;SDS011;14204;51.262;5.488;2024-03-02T08:35:33;3.00;;;0.68;;
26536;SDS011;14204;51.262;5.488;2024-03-02T08:38:03;3.13;;;0.60;;
26536;SDS011;14204;51.262;5.488;2024-03-02T08:40:29;1.95;;;0.63;;
26536;SDS011;14204;51.262;5.488;2024-03-02T08:42:55;4.55;;;0.95;;
26536;SDS011;14204;51.262;5.488;2024-03-02T08:45:21;2.40;;;0.63;;
26536;SDS011;14204;51.262;5.488;2024-03-02T08:47:47;4.18;;;0.57;;
26536;SDS011;14204;51.262;5.488;2024-03-02T08:50:13;3.53;;;0.57;;
26536;SDS011;14204;51.262;5.488;2024-03-02T08:52:39;6.55;;;0.60;;
26536;SDS011;14204;51.262;5.488;2024-03-02T08:55:05;4.25;;;0.90;;
26536;SDS011;14204;51.262;5.488;2024-03-02T08:57:32;5.85;;;1.10;;
26536;SDS011;14204;51.262;5.488;2024-03-02T08:59:58;3.90;;;0.98;;
26536;SDS011;14204;51.262;5.488;2024-03-02T09:02:24;2.83;;;0.60;;
26536;SDS011;14204;51.262;5.488;2024-03-02T09:04:50;3.38;;;0.82;;
26536;SDS011;14204;51.262;5.488;2024-03-02T09:07:16;3.30;;;0.95;;
26536;SDS011;14204;51.262;5.488;2024-03-02T09:09:42;4.53;;;0.93;;
26536;SDS011;14204;51.262;5.488;2024-03-02T09:12:08;2.60;;;0.60;;
26536;SDS011;14204;51.262;5.488;2024-03-02T09:14:33;5.38;;;1.00;;
26536;SDS011;14204;51.262;5.488;2024-03-02T09:17:00;3.88;;;0.80;;
26536;SDS011;14204;51.262;5.488;2024-03-02T09:19:26;6.65;;;0.73;;
26536;SDS011;14204;51.262;5.488;2024-03-02T09:21:51;7.43;;;0.90;;
26536;SDS011;14204;51.262;5.488;2024-03-02T09:24:17;2.58;;;0.80;;
26536;SDS011;14204;51.262;5.488;2024-03-02T09:26:43;2.97;;;0.60;;
26536;SDS011;14204;51.262;5.488;2024-03-02T09:29:09;3.67;;;0.85;;
26536;SDS011;14204;51.262;5.488;2024-03-02T09:31:39;3.35;;;1.02;;
26536;SDS011;14204;51.262;5.488;2024-03-02T09:34:05;6.35;;;1.50;;
26536;SDS011;14204;51.262;5.488;2024-03-02T09:36:31;4.35;;;0.73;;
26536;SDS011;14204;51.262;5.488;2024-03-02T09:38:57;5.40;;;1.35;;
26536;SDS011;14204;51.262;5.488;2024-03-02T09:41:23;5.65;;;1.05;;
26536;SDS011;14204;51.262;5.488;2024-03-02T09:43:49;4.95;;;0.70;;
26536;SDS011;14204;51.262;5.488;2024-03-02T09:46:15;4.25;;;0.80;;
26536;SDS011;14204;51.262;5.488;2024-03-02T09:48:41;5.45;;;1.05;;
26536;SDS011;14204;51.262;5.488;2024-03-02T09:51:07;4.20;;;1.00;;
26536;SDS011;14204;51.262;5.488;2024-03-02T09:53:33;4.20;;;0.70;;
26536;SDS011;14204;51.262;5.488;2024-03-02T09:55:59;4.20;;;1.17;;
26536;SDS011;14204;51.262;5.488;2024-03-02T09:58:25;5.45;;;1.17;;
26536;SDS011;14204;51.262;5.488;2024-03-02T10:00:51;3.40;;;0.80;;
26536;SDS011;14204;51.262;5.488;2024-03-02T10:03:18;7.25;;;0.95;;
26536;SDS011;14204;51.262;5.488;2024-03-02T10:05:44;4.35;;;0.70;;
26536;SDS011;14204;51.262;5.488;2024-03-02T10:08:09;2.80;;;0.82;;
26536;SDS011;14204;51.262;5.488;2024-03-02T10:10:40;5.60;;;1.73;;
26536;SDS011;14204;51.262;5.488;2024-03-02T10:13:08;2.97;;;0.60;;
26536;SDS011;14204;51.262;5.488;2024-03-02T10:15:35;3.80;;;0.90;;
26536;SDS011;14204;51.262;5.488;2024-03-02T10:18:12;6.28;;;1.00;;
26536;SDS011;14204;51.262;5.488;2024-03-02T10:20:38;3.17;;;0.80;;
26536;SDS011;14204;51.262;5.488;2024-03-02T10:23:12;4.68;;;1.08;;
26536;SDS011;14204;51.262;5.488;2024-03-02T10:25:38;3.72;;;0.90;;
26536;SDS011;14204;51.262;5.488;2024-03-02T10:28:05;3.95;;;0.77;;
26536;SDS011;14204;51.262;5.488;2024-03-02T10:30:31;7.70;;;1.20;;
26536;SDS011;14204;51.262;5.488;2024-03-02T10:32:58;3.92;;;0.70;;
26536;SDS011;14204;51.262;5.488;2024-03-02T10:35:23;3.65;;;0.60;;
26536;SDS011;14204;51.262;5.488;2024-03-02T10:37:51;2.83;;;0.70;;
26536;SDS011;14204;51.262;5.488;2024-03-02T10:40:17;3.80;;;0.73;;
26536;SDS011;14204;51.262;5.488;2024-03-02T10:42:46;2.22;;;0.70;;
26536;SDS011;14204;51.262;5.488;2024-03-02T10:45:14;2.58;;;0.80;;
26536;SDS011;14204;51.262;5.488;2024-03-02T10:47:42;4.45;;;1.30;;
26536;SDS011;14204;51.262;5.488;2024-03-02T10:50:09;4.15;;;0.90;;
26536;SDS011;14204;51.262;5.488;2024-03-02T10:52:36;3.25;;;1.20;;
26536;SDS011;14204;51.262;5.488;2024-03-02T10:55:14;4.63;;;0.90;;
26536;SDS011;14204;51.262;5.488;2024-03-02T10:57:50;4.65;;;1.23;;
26536;SDS011;14204;51.262;5.488;2024-03-02T11:00:18;4.07;;;0.95;;
26536;SDS011;14204;51.262;5.488;2024-03-02T11:02:55;3.67;;;1.35;;
26536;SDS011;14204;51.262;5.488;2024-03-02T11:05:28;3.15;;;1.08;;
26536;SDS011;14204;51.262;5.488;2024-03-02T11:08:02;2.90;;;1.13;;
26536;SDS011;14204;51.262;5.488;2024-03-02T11:10:36;2.90;;;0.80;;
26536;SDS011;14204;51.262;5.488;2024-03-02T11:13:11;2.80;;;0.90;;
26536;SDS011;14204;51.262;5.488;2024-03-02T11:15:37;5.47;;;1.10;;
26536;SDS011;14204;51.262;5.488;2024-03-02T11:18:10;2.90;;;0.85;;
26536;SDS011;14204;51.262;5.488;2024-03-02T11:20:37;3.58;;;1.05;;
26536;SDS011;14204;51.262;5.488;2024-03-02T11:23:08;5.20;;;1.15;;
26536;SDS011;14204;51.262;5.488;2024-03-02T11:25:34;6.88;;;1.27;;
26536;SDS011;14204;51.262;5.488;2024-03-02T11:28:01;4.32;;;1.00;;
26536;SDS011;14204;51.262;5.488;2024-03-02T11:33:00;7.25;;;1.15;;
26536;SDS011;14204;51.262;5.488;2024-03-02T11:35:33;6.22;;;0.90;;
26536;SDS011;14204;51.262;5.488;2024-03-02T11:38:01;6.40;;;0.90;;
26536;SDS011;14204;51.262;5.488;2024-03-02T11:40:28;5.82;;;1.20;;
26536;SDS011;14204;51.262;5.488;2024-03-02T11:42:55;6.40;;;1.05;;
26536;SDS011;14204;51.262;5.488;2024-03-02T11:45:28;6.57;;;1.00;;
26536;SDS011;14204;51.262;5.488;2024-03-02T11:47:54;7.53;;;1.23;;
26536;SDS011;14204;51.262;5.488;2024-03-02T11:50:33;3.35;;;1.10;;
26536;SDS011;14204;51.262;5.488;2024-03-02T11:53:06;4.25;;;1.00;;
26536;SDS011;14204;51.262;5.488;2024-03-02T11:55:42;6.03;;;1.40;;
26536;SDS011;14204;51.262;5.488;2024-03-02T11:58:11;4.20;;;1.05;;
26536;SDS011;14204;51.262;5.488;2024-03-02T12:00:38;3.90;;;0.90;;
26536;SDS011;14204;51.262;5.488;2024-03-02T12:03:07;7.45;;;1.27;;
26536;SDS011;14204;51.262;5.488;2024-03-02T12:05:34;6.40;;;1.08;;
26536;SDS011;14204;51.262;5.488;2024-03-02T12:08:02;4.95;;;1.35;;
26536;SDS011;14204;51.262;5.488;2024-03-02T12:10:29;5.32;;;1.20;;
26536;SDS011;14204;51.262;5.488;2024-03-02T12:12:56;3.53;;;0.93;;
26536;SDS011;14204;51.262;5.488;2024-03-02T12:15:25;4.70;;;1.08;;
26536;SDS011;14204;51.262;5.488;2024-03-02T12:17:55;4.78;;;1.20;;
26536;SDS011;14204;51.262;5.488;2024-03-02T12:20:22;4.63;;;1.20;;
26536;SDS011;14204;51.262;5.488;2024-03-02T12:22:52;3.53;;;1.10;;
26536;SDS011;14204;51.262;5.488;2024-03-02T12:25:19;6.95;;;1.38;;
26536;SDS011;14204;51.262;5.488;2024-03-02T12:27:45;6.20;;;1.05;;
26536;SDS011;14204;51.262;5.488;2024-03-02T12:30:18;3.38;;;1.33;;
26536;SDS011;14204;51.262;5.488;2024-03-02T12:32:44;3.58;;;1.23;;
26536;SDS011;14204;51.262;5.488;2024-03-02T12:35:11;2.80;;;0.80;;
26536;SDS011;14204;51.262;5.488;2024-03-02T12:37:47;5.88;;;1.30;;
26536;SDS011;14204;51.262;5.488;2024-03-02T12:40:14;4.20;;;1.23;;
26536;SDS011;14204;51.262;5.488;2024-03-02T12:42:43;2.55;;;0.98;;
26536;SDS011;14204;51.262;5.488;2024-03-02T12:45:13;4.05;;;1.40;;
26536;SDS011;14204;51.262;5.488;2024-03-02T12:47:39;3.45;;;0.98;;
26536;SDS011;14204;51.262;5.488;2024-03-02T12:50:06;4.18;;;1.35;;
26536;SDS011;14204;51.262;5.488;2024-03-02T12:52:33;5.88;;;1.00;;
26536;SDS011;14204;51.262;5.488;2024-03-02T12:55:00;4.20;;;1.20;;
26536;SDS011;14204;51.262;5.488;2024-03-02T12:57:28;3.47;;;1.17;;
26536;SDS011;14204;51.262;5.488;2024-03-02T12:59:58;2.33;;;1.02;;
26536;SDS011;14204;51.262;5.488;2024-03-02T13:02:34;6.85;;;1.17;;
26536;SDS011;14204;51.262;5.488;2024-03-02T13:05:01;4.50;;;0.90;;
26536;SDS011;14204;51.262;5.488;2024-03-02T13:07:28;5.15;;;1.00;;
26536;SDS011;14204;51.262;5.488;2024-03-02T13:09:54;3.08;;;1.15;;
26536;SDS011;14204;51.262;5.488;2024-03-02T13:12:22;3.65;;;1.48;;
26536;SDS011;14204;51.262;5.488;2024-03-02T13:14:52;10.00;;;1.45;;
26536;SDS011;14204;51.262;5.488;2024-03-02T13:17:18;4.03;;;1.10;;
26536;SDS011;14204;51.262;5.488;2024-03-02T13:19:52;3.00;;;0.85;;
26536;SDS011;14204;51.262;5.488;2024-03-02T13:22:21;1.23;;;0.73;;
26536;SDS011;14204;51.262;5.488;2024-03-02T13:24:48;6.25;;;1.08;;
26536;SDS011;14204;51.262;5.488;2024-03-02T13:27:14;4.10;;;1.05;;
26536;SDS011;14204;51.262;5.488;2024-03-02T13:29:41;6.10;;;1.55;;
26536;SDS011;14204;51.262;5.488;2024-03-02T13:32:07;3.00;;;1.00;;
26536;SDS011;14204;51.262;5.488;2024-03-02T13:34:35;5.32;;;1.00;;
26536;SDS011;14204;51.262;5.488;2024-03-02T13:37:02;2.75;;;0.88;;
26536;SDS011;14204;51.262;5.488;2024-03-02T13:39:29;2.35;;;0.98;;
26536;SDS011;14204;51.262;5.488;2024-03-02T13:41:57;5.65;;;1.65;;
26536;SDS011;14204;51.262;5.488;2024-03-02T13:46:55;5.90;;;1.02;;
26536;SDS011;14204;51.262;5.488;2024-03-02T13:49:20;3.30;;;0.90;;
26536;SDS011;14204;51.262;5.488;2024-03-02T13:51:46;2.90;;;0.77;;
26536;SDS011;14204;51.262;5.488;2024-03-02T13:54:12;4.57;;;0.98;;
26536;SDS011;14204;51.262;5.488;2024-03-02T13:56:38;2.70;;;1.08;;
26536;SDS011;14204;51.262;5.488;2024-03-02T13:59:05;1.90;;;0.70;;
26536;SDS011;14204;51.262;5.488;2024-03-02T14:01:32;5.95;;;1.13;;
26536;SDS011;14204;51.262;5.488;2024-03-02T14:03:58;4.38;;;0.80;;
26536;SDS011;14204;51.262;5.488;2024-03-02T14:06:24;1.83;;;0.63;;
26536;SDS011;14204;51.262;5.488;2024-03-02T14:08:52;2.90;;;1.35;;
26536;SDS011;14204;51.262;5.488;2024-03-02T14:11:18;3.22;;;0.90;;
26536;SDS011;14204;51.262;5.488;2024-03-02T14:13:44;1.00;;;0.65;;
26536;SDS011;14204;51.262;5.488;2024-03-02T14:16:14;3.40;;;0.80;;
26536;SDS011;14204;51.262;5.488;2024-03-02T14:18:41;2.42;;;1.08;;
26536;SDS011;14204;51.262;5.488;2024-03-02T14:21:07;2.88;;;0.65;;
26536;SDS011;14204;51.262;5.488;2024-03-02T14:23:33;1.92;;;0.73;;
26536;SDS011;14204;51.262;5.488;2024-03-02T14:25:59;3.08;;;0.82;;
26536;SDS011;14204;51.262;5.488;2024-03-02T14:28:25;3.40;;;0.80;;
26536;SDS011;14204;51.262;5.488;2024-03-02T14:30:50;2.85;;;0.65;;
26536;SDS011;14204;51.262;5.488;2024-03-02T14:33:16;2.08;;;0.57;;
26536;SDS011;14204;51.262;5.488;2024-03-02T14:35:42;3.95;;;0.60;;
26536;SDS011;14204;51.262;5.488;2024-03-02T14:38:07;4.18;;;1.02;;
26536;SDS011;14204;51.262;5.488;2024-03-02T14:40:33;2.80;;;0.60;;
26536;SDS011;14204;51.262;5.488;2024-03-02T14:42:59;3.38;;;0.77;;
26536;SDS011;14204;51.262;5.488;2024-03-02T14:45:24;1.60;;;0.80;;
26536;SDS011;14204;51.262;5.488;2024-03-02T14:47:51;2.17;;;0.70;;
26536;SDS011;14204;51.262;5.488;2024-03-02T14:50:17;1.05;;;0.60;;
26536;SDS011;14204;51.262;5.488;2024-03-02T14:52:44;1.65;;;0.65;;
26536;SDS011;14204;51.262;5.488;2024-03-02T14:55:10;1.83;;;0.98;;
26536;SDS011;14204;51.262;5.488;2024-03-02T14:57:36;1.02;;;0.57;;